This is the latest recevied weather packets stored in our database for station/object N2PUI. If no packets are shown the sender has not sent any weather packets the latest 10 day(s).
| Time | Temp. | Humidity | Pressure | Rain* | Wind** | Luminosity | Snow |
|---|---|---|---|---|---|---|---|
| 1778005226 | 23.33° C | 51% | 1005.7 hPa | 0 mm | - | 413 W/m² | - |
| 1778004923 | 21.11° C | 63% | 1005.9 hPa | 0 mm | - | 486 W/m² | - |
| 1778004621 | 20.56° C | 69% | 1005.9 hPa | 0 mm | - | 587 W/m² | - |
| 1778004316 | 19.44° C | 74% | 1006 hPa | 0 mm | - | 636 W/m² | - |
| 1778004015 | 18.89° C | 75% | 1006.7 hPa | 0 mm | - | 532 W/m² | - |
| 1778003709 | 18.89° C | 78% | 1006.6 hPa | 0 mm | - | 452 W/m² | - |
| 1778003407 | 18.33° C | 76% | 1006.8 hPa | 1.78 mm | - | 414 W/m² | - |
| 1778003104 | 18.33° C | 75% | 1007 hPa | 1.78 mm | - | 381 W/m² | - |
| 1778002799 | 18.89° C | 71% | 1007.2 hPa | 0 mm | - | 331 W/m² | - |
| 1778002496 | 21.67° C | 64% | 1006.8 hPa | 0 mm | - | 35 W/m² | - |
| 1778002193 | 22.78° C | 55% | 1006.6 hPa | 0 mm | - | 48 W/m² | - |
| 1778001892 | 23.33° C | 48% | 1006.4 hPa | 0 mm | - | 80 W/m² | - |
| 1778001591 | 23.33° C | 48% | 1006.6 hPa | 0 mm | - | 50 W/m² | - |
| 1778001288 | 23.33° C | 48% | 1006.6 hPa | 0 mm | - | 66 W/m² | - |
| 1778000985 | 23.89° C | 49% | 1006.4 hPa | 0 mm | - | 82 W/m² | - |
| 1778000681 | 23.89° C | 46% | 1006.3 hPa | 0 mm | - | 148 W/m² | - |
| 1778000376 | 24.44° C | 46% | 1006.3 hPa | 0 mm | - | 222 W/m² | - |
| 1778000072 | 24.44° C | 45% | 1005.9 hPa | 0 mm | - | 471 W/m² | - |
| 1777999762 | 24.44° C | 45% | 1005.9 hPa | 0 mm | - | 350 W/m² | - |
| 1777999459 | 24.44° C | 47% | 1006.1 hPa | 0 mm | - | 333 W/m² | - |
| 1777999157 | 24.44° C | 43% | 1006.2 hPa | 0 mm | - | 347 W/m² | - |
| 1777998856 | 24.44° C | 43% | 1006.1 hPa | 0 mm | - | 577 W/m² | - |
| 1777998555 | 25° C | 45% | 1006.1 hPa | 0 mm | - | 425 W/m² | - |
| 1777998250 | 24.44° C | 45% | 1006.3 hPa | 0 mm | - | 509 W/m² | - |
| 1777997947 | 23.89° C | 45% | 1006.6 hPa | 0 mm | - | 473 W/m² | - |
* Rain latest hour (hover to see other rain measurements)
** Current wind speed in m/s (hover to see current wind gust speed)